Home > Products > Valid Products > TAF

000
FTUS43 KARX 240520
TAFLSE
TAF
KLSE 240520Z 2406/2506 VRB03KT P6SM SCT070
     FM241000 12004KT P6SM BCFG SCT004
      TEMPO 2411/2413 5SM BR BKN004
     FM241315 18005KT P6SM SCT050
     FM250100 16005KT P6SM VCSH BKN110=



000
FTUS43 KARX 240520
TAFRST
TAF
KRST 240520Z 2406/2506 VRB04KT P6SM SKC
     FM241400 18007KT P6SM SCT045
     FM250000 17007KT P6SM VCSH BKN100=



000
FTUS43 KARX 240520
TAFLSE
TAF
KLSE 240520Z 2406/2506 VRB03KT P6SM SCT070
     FM241000 12004KT P6SM BCFG SCT004
      TEMPO 2411/2413 5SM BR BKN004
     FM241315 18005KT P6SM SCT050
     FM250100 16005KT P6SM VCSH BKN110=



000
FTUS43 KARX 240520
TAFRST
TAF
KRST 240520Z 2406/2506 VRB04KT P6SM SKC
     FM241400 18007KT P6SM SCT045
     FM250000 17007KT P6SM VCSH BKN100=



000
FTUS43 KARX 232324
TAFRST
TAF
KRST 232324Z 2400/2424 VRB04KT P6SM SKC
     FM241400 17007KT P6SM SCT045=



000
FTUS43 KARX 232324
TAFLSE
TAF
KLSE 232324Z 2400/2424 VRB03KT P6SM SCT070
     FM240900 12004KT P6SM BCFG SCT004
      TEMPO 2411/2413 2SM BR BKN004
     FM241315 17005KT P6SM SCT050=



000
FTUS43 KARX 232324
TAFRST
TAF
KRST 232324Z 2400/2424 VRB04KT P6SM SKC
     FM241400 17007KT P6SM SCT045=



000
FTUS43 KARX 232324
TAFLSE
TAF
KLSE 232324Z 2400/2424 VRB03KT P6SM SCT070
     FM240900 12004KT P6SM BCFG SCT004
      TEMPO 2411/2413 2SM BR BKN004
     FM241315 17005KT P6SM SCT050=



000
FTUS43 KARX 231720
TAFLSE
TAF
KLSE 231720Z 2318/2418 34007KT P6SM SCT050
     FM240100 09003KT P6SM SCT120
     FM240900 12004KT P6SM BCFG SCT002
      TEMPO 2411/2413 2SM BR
     FM241315 16005KT P6SM SCT045=



000
FTUS43 KARX 231720
TAFRST
TAF
KRST 231720Z 2318/2418 35007KT P6SM SCT045
     FM240100 05004KT P6SM SCT110
     FM240700 15004KT P6SM SCT100
     FM241400 17007KT P6SM SCT040=



000
FTUS43 KARX 231720
TAFLSE
TAF
KLSE 231720Z 2318/2418 34007KT P6SM SCT050
     FM240100 09003KT P6SM SCT120
     FM240900 12004KT P6SM BCFG SCT002
      TEMPO 2411/2413 2SM BR
     FM241315 16005KT P6SM SCT045=



000
FTUS43 KARX 231720
TAFRST
TAF
KRST 231720Z 2318/2418 35007KT P6SM SCT045
     FM240100 05004KT P6SM SCT110
     FM240700 15004KT P6SM SCT100
     FM241400 17007KT P6SM SCT040=



000
FTUS43 KARX 231129
TAFRST
TAF
KRST 231129Z 2312/2412 34005KT P6SM FEW045
     FM231600 36007KT P6SM SCT045
     FM240100 VRB04KT P6SM FEW045=



000
FTUS43 KARX 231129
TAFLSE
TAF
KLSE 231129Z 2312/2412 36004KT P6SM SKC
     FM231600 34007KT P6SM SCT050
     FM240100 VRB03KT P6SM FEW050
     FM240900 12003KT P6SM BCFG SCT002=



000
FTUS43 KARX 231129
TAFRST
TAF
KRST 231129Z 2312/2412 34005KT P6SM FEW045
     FM231600 36007KT P6SM SCT045
     FM240100 VRB04KT P6SM FEW045=



000
FTUS43 KARX 231129
TAFLSE
TAF
KLSE 231129Z 2312/2412 36004KT P6SM SKC
     FM231600 34007KT P6SM SCT050
     FM240100 VRB03KT P6SM FEW050
     FM240900 12003KT P6SM BCFG SCT002=



000
FTUS43 KARX 230520
TAFRST
TAF
KRST 230520Z 2306/2406 34005KT P6SM SKC
     FM231700 36007KT P6SM SCT045
     FM240100 VRB03KT P6SM FEW045=



000
FTUS43 KARX 230520
TAFLSE
TAF
KLSE 230520Z 2306/2406 VRB03KT P6SM SKC
     FM231000 VRB03KT P6SM SCT005
     FM231300 34006KT P6SM SCT050
     FM240100 VRB03KT P6SM FEW050=



000
FTUS43 KARX 230520
TAFLSE
TAF
KLSE 230520Z 2306/2406 VRB03KT P6SM SKC
     FM231000 VRB03KT P6SM SCT005
     FM231300 34006KT P6SM SCT050
     FM240100 VRB03KT P6SM FEW050=



000
FTUS43 KARX 230520
TAFRST
TAF
KRST 230520Z 2306/2406 34005KT P6SM SKC
     FM231700 36007KT P6SM SCT045
     FM240100 VRB03KT P6SM FEW045=



000
FTUS43 KARX 222330
TAFLSE
TAF
KLSE 222330Z 2300/2324 32010KT P6SM FEW030
     FM231000 35005KT P6SM SCT005
     FM231300 34007KT P6SM FEW050=



000
FTUS43 KARX 222330
TAFRST
TAF
KRST 222330Z 2300/2324 31010KT P6SM FEW040
     FM230900 34005KT P6SM SKC
     FM231700 36008KT P6SM FEW045=



000
FTUS43 KARX 222330
TAFRST
TAF
KRST 222330Z 2300/2324 31010KT P6SM FEW040
     FM230900 34005KT P6SM SKC
     FM231700 36008KT P6SM FEW045=



000
FTUS43 KARX 222330
TAFLSE
TAF
KLSE 222330Z 2300/2324 32010KT P6SM FEW030
     FM231000 35005KT P6SM SCT005
     FM231300 34007KT P6SM FEW050=



000
FTUS43 KARX 221720
TAFRST
TAF
KRST 221720Z 2218/2318 33012G20KT P6SM SCT025
      TEMPO 2218/2220 BKN025
     FM222100 34012G18KT P6SM SKC
     FM230000 36008KT P6SM SKC
     FM230900 02005KT P6SM SKC=



000
FTUS43 KARX 221720
TAFLSE
TAF
KLSE 221720Z 2218/2318 31010G18KT P6SM SCT030
     FM222300 33008KT P6SM SCT030
     FM230200 36005KT P6SM SKC
     FM230800 03004KT P6SM SKC
     FM231500 34005KT P6SM FEW050=



000
FTUS43 KARX 221720
TAFRST
TAF
KRST 221720Z 2218/2318 33012G20KT P6SM SCT025
      TEMPO 2218/2220 BKN025
     FM222100 34012G18KT P6SM SKC
     FM230000 36008KT P6SM SKC
     FM230900 02005KT P6SM SKC=



000
FTUS43 KARX 221720
TAFLSE
TAF
KLSE 221720Z 2218/2318 31010G18KT P6SM SCT030
     FM222300 33008KT P6SM SCT030
     FM230200 36005KT P6SM SKC
     FM230800 03004KT P6SM SKC
     FM231500 34005KT P6SM FEW050=



000
FTUS43 KARX 221402 AAB
TAFRST
TAF AMD
KRST 221402Z 2214/2312 30013KT P6SM SKC
     FM221500 32014G20KT P6SM BKN150
     FM221900 34012G18KT P6SM SCT150
     FM230100 36009KT P6SM SKC
     FM230600 36005KT P6SM SKC=



000
FTUS43 KARX 221332 AAA
TAFRST
TAF AMD
KRST 221332Z 2214/2312 27012KT 4SM BR BKN009
     FM221430 30013KT P6SM SKC
     FM221800 33014G20KT P6SM SKC
     FM230100 36009KT P6SM SKC
     FM230600 36005KT P6SM SKC=



000
FTUS43 KARX 221308 AAA
TAFLSE
TAF AMD
KLSE 221308Z 2213/2312 19009KT P6SM SCT025
      TEMPO 2213/2215 BKN025
     FM221500 24012KT P6SM SCT020
     FM221700 29014G18KT P6SM SKC
     FM230100 33007KT P6SM SKC
     FM230600 36003KT P6SM SKC=



000
FTUS43 KARX 221308 AAA
TAFLSE
TAF AMD
KLSE 221308Z 2213/2312 19009KT P6SM SCT025
      TEMPO 2213/2215 BKN025
     FM221500 24012KT P6SM SCT020
     FM221700 29014G18KT P6SM SKC
     FM230100 33007KT P6SM SKC
     FM230600 36003KT P6SM SKC=



000
FTUS43 KARX 221121
TAFRST
TAF
KRST 221121Z 2212/2312 21012KT 4SM BR BKN015
     FM221400 30013KT P6SM SKC
     FM221800 33014G20KT P6SM SKC
     FM230100 36009KT P6SM SKC
     FM230600 36005KT P6SM SKC=



000
FTUS43 KARX 221121
TAFRST
TAF
KRST 221121Z 2212/2312 21012KT 4SM BR BKN015
     FM221400 30013KT P6SM SKC
     FM221800 33014G20KT P6SM SKC
     FM230100 36009KT P6SM SKC
     FM230600 36005KT P6SM SKC=



000
FTUS43 KARX 221121
TAFLSE
TAF
KLSE 221121Z 2212/2312 19010KT P6SM SCT020
     FM221500 24012KT P6SM SCT020
     FM221700 29014G18KT P6SM SKC
     FM230100 33007KT P6SM SKC
     FM230600 36003KT P6SM SKC=



000
FTUS43 KARX 220946 AAA
TAFRST
TAF AMD
KRST 220946Z 2210/2306 18014KT 5SM BR SCT015
     FM221400 30014KT P6SM SKC
     FM222100 33014G22KT P6SM SKC
     FM230300 01009KT P6SM SKC=



000
FTUS43 KARX 220946 AAA
TAFRST
TAF AMD
KRST 220946Z 2210/2306 18014KT 5SM BR SCT015
     FM221400 30014KT P6SM SKC
     FM222100 33014G22KT P6SM SKC
     FM230300 01009KT P6SM SKC=



000
FTUS43 KARX 220520
TAFLSE
TAF
KLSE 220520Z 2206/2306 16009KT P6SM SCT150
     FM221300 21012KT P6SM SCT150
     FM221700 29012G18KT P6SM SKC
     FM230400 35007KT P6SM SKC=



000
FTUS43 KARX 220520
TAFRST
TAF
KRST 220520Z 2206/2306 18012G20KT P6SM SCT150
     FM221400 30014KT P6SM SKC
     FM222100 33014G22KT P6SM SKC
     FM230300 01009KT P6SM SKC=



000
FTUS43 KARX 220520
TAFLSE
TAF
KLSE 220520Z 2206/2306 16009KT P6SM SCT150
     FM221300 21012KT P6SM SCT150
     FM221700 29012G18KT P6SM SKC
     FM230400 35007KT P6SM SKC=



000
FTUS43 KARX 220242 AAA
TAFRST
TAF AMD
KRST 220242Z 2203/2224 18011KT P6SM BKN025
      TEMPO 2203/2206 SCT025 BKN035
     FM220800 19013KT P6SM VCTS BKN080CB
     FM221100 21014KT P6SM SCT035
     FM221600 28014G22KT P6SM SCT035
     FM222100 33014G22KT P6SM SCT035=



000
FTUS43 KARX 220242 AAA
TAFRST
TAF AMD
KRST 220242Z 2203/2224 18011KT P6SM BKN025
      TEMPO 2203/2206 SCT025 BKN035
     FM220800 19013KT P6SM VCTS BKN080CB
     FM221100 21014KT P6SM SCT035
     FM221600 28014G22KT P6SM SCT035
     FM222100 33014G22KT P6SM SCT035=



000
FTUS43 KARX 220220 AAA
TAFLSE
TAF AMD
KLSE 220220Z 2202/2224 16009KT P6SM BKN035
     FM221000 17009KT P6SM VCTS BKN070CB
     FM221300 21015KT P6SM SCT040
     FM222200 29013KT P6SM SCT040=



000
FTUS43 KARX 220220 AAA
TAFLSE
TAF AMD
KLSE 220220Z 2202/2224 16009KT P6SM BKN035
     FM221000 17009KT P6SM VCTS BKN070CB
     FM221300 21015KT P6SM SCT040
     FM222200 29013KT P6SM SCT040=



000
FTUS43 KARX 212320
TAFRST
TAF
KRST 212320Z 2200/2224 18013KT P6SM BKN035
     FM220800 19013KT P6SM VCTS BKN080CB
     FM221100 21014KT P6SM SCT035
     FM221600 28014G22KT P6SM SCT035
     FM222100 33014G22KT P6SM SCT035=



000
FTUS43 KARX 212320
TAFLSE
TAF
KLSE 212320Z 2200/2224 16011KT P6SM SCT060
     FM221000 17009KT P6SM VCTS BKN070CB
     FM221300 21015KT P6SM SCT040
     FM222200 29013KT P6SM SCT040=



000
FTUS43 KARX 212320
TAFRST
TAF
KRST 212320Z 2200/2224 18013KT P6SM BKN035
     FM220800 19013KT P6SM VCTS BKN080CB
     FM221100 21014KT P6SM SCT035
     FM221600 28014G22KT P6SM SCT035
     FM222100 33014G22KT P6SM SCT035=



000
FTUS43 KARX 212320
TAFLSE
TAF
KLSE 212320Z 2200/2224 16011KT P6SM SCT060
     FM221000 17009KT P6SM VCTS BKN070CB
     FM221300 21015KT P6SM SCT040
     FM222200 29013KT P6SM SCT040=



000
FTUS43 KARX 212025 AAB
TAFRST
TAF AMD
KRST 212025Z 2120/2218 16014G22KT P6SM SCT030
     FM220000 17013KT P6SM SCT030
     FM220900 19013KT P6SM SCT035 BKN080
     FM221200 21013KT P6SM SCT035
     FM221600 29014G22KT P6SM SCT045=



000
FTUS43 KARX 211842 AAA
TAFRST
TAF AMD
KRST 211842Z 2119/2218 16014G20KT P6SM BKN025
      TEMPO 2120/2121 SCT025
     FM212100 16012G18KT P6SM SCT030
     FM220000 17013KT P6SM FEW035
     FM220900 19013KT P6SM SCT035 BKN080
     FM221200 21013KT P6SM SCT035
     FM221600 29014G22KT P6SM SCT045=



000
FTUS43 KARX 211842 AAA
TAFRST
TAF AMD
KRST 211842Z 2119/2218 16014G20KT P6SM BKN025
      TEMPO 2120/2121 SCT025
     FM212100 16012G18KT P6SM SCT030
     FM220000 17013KT P6SM FEW035
     FM220900 19013KT P6SM SCT035 BKN080
     FM221200 21013KT P6SM SCT035
     FM221600 29014G22KT P6SM SCT045=



000
FTUS43 KARX 211720
TAFRST
TAF
KRST 211720Z 2118/2218 16014G20KT P6SM SCT045
     FM220000 17013KT P6SM FEW050
     FM220900 19013KT P6SM SCT035 BKN080
     FM221200 21013KT P6SM SCT035
     FM221600 29014G22KT P6SM SCT045=



000
FTUS43 KARX 211720
TAFLSE
TAF
KLSE 211720Z 2118/2218 17012G18KT P6SM SCT050
     FM220000 16009KT P6SM FEW060
     FM221000 17012KT P6SM VCSH SCT040 BKN080
     FM221300 21013KT P6SM SCT040=



000
FTUS43 KARX 211720
TAFLSE
TAF
KLSE 211720Z 2118/2218 17012G18KT P6SM SCT050
     FM220000 16009KT P6SM FEW060
     FM221000 17012KT P6SM VCSH SCT040 BKN080
     FM221300 21013KT P6SM SCT040=



000
FTUS43 KARX 211720
TAFRST
TAF
KRST 211720Z 2118/2218 16014G20KT P6SM SCT045
     FM220000 17013KT P6SM FEW050
     FM220900 19013KT P6SM SCT035 BKN080
     FM221200 21013KT P6SM SCT035
     FM221600 29014G22KT P6SM SCT045=



000
FTUS43 KARX 211131
TAFLSE
TAF
KLSE 211131Z 2112/2212 17007KT P6SM BKN040
     FM211700 17012G18KT P6SM SCT050
     FM220100 16010KT P6SM FEW060
     FM221100 16010KT P6SM VCSH BKN080=



000
FTUS43 KARX 211131
TAFLSE
TAF
KLSE 211131Z 2112/2212 17007KT P6SM BKN040
     FM211700 17012G18KT P6SM SCT050
     FM220100 16010KT P6SM FEW060
     FM221100 16010KT P6SM VCSH BKN080=



000
FTUS43 KARX 211131
TAFRST
TAF
KRST 211131Z 2112/2212 17009KT P6SM BKN035
     FM211700 17014G20KT P6SM SCT040
     FM220100 17014KT P6SM FEW050
     FM220900 17012KT P6SM VCSH BKN060=



000
FTUS43 KARX 211131
TAFRST
TAF
KRST 211131Z 2112/2212 17009KT P6SM BKN035
     FM211700 17014G20KT P6SM SCT040
     FM220100 17014KT P6SM FEW050
     FM220900 17012KT P6SM VCSH BKN060=



    US Dept of Commerce
    National Oceanic and Atmospheric Administration
    National Weather Service
    1325 East West Highway
    Silver Spring, MD 20910
    Page Author: NWS Internet Services Team
Disclaimer
Information Quality
Credits
Glossary
Privacy Policy
Freedom of Information Act (FOIA)
About Us
Career Opportunities